Station History

Weather Underground - logo

Station Historical Data
Daily Summary for March 1, 2018 Units:  Both    English   Metric
« Previous Day
Next Day »
Daily Weekly Monthly Yearly Custom
  High: Low: Average:
Temperature: 62.3 °F /  16.8 °C 43.0 °F /  6.1 °C 51.6 °F /  10.9 °C
Dew Point: 51.1 °F /  10.6 °C 39.4 °F /  4.1 °C 44.6 °F /  7 °C
Humidity: 92 % 50 % 78 %
Wind Speed: 9.0 mph /  14.5 km/h - 0.9 mph /  1.4 km/h
Wind Gust: 9.0 mph /  14.5 km/h - -
Wind:- - SE
Pressure: 30.18 in /  1021.9 hPa 29.95 in /  1014.1 hPa -
Precipitation: 0.19 in /  4.83 mm    
Historical Graphs
 
 
Tabular Data for March 1, 2018
Time Temperature Dew Point Pressure Wind Wind Speed Wind Gust Humidity Rainfall Rate (Hourly)
00:03 43.0 °F /  6.1 °C 39.4 °F /  4.1 °C 30.18 in /  1021.9 hPa Calm     87 % 0.00 in /  0 mm
00:08 43.2 °F /  6.2 °C 39.6 °F /  4.2 °C 30.18 in /  1021.9 hPa Calm     87 % 0.00 in /  0 mm
00:13 43.3 °F /  6.3 °C 39.7 °F /  4.3 °C 30.18 in /  1021.9 hPa Calm     87 % 0.00 in /  0 mm
00:17 43.4 °F /  6.3 °C 39.8 °F /  4.3 °C 30.18 in /  1021.9 hPa Calm     87 % 0.00 in /  0 mm
00:22 43.5 °F /  6.4 °C 39.9 °F /  4.4 °C 30.18 in /  1021.9 hPa Calm     87 % 0.00 in /  0 mm
00:27 43.9 °F /  6.6 °C 40.3 °F /  4.6 °C 30.18 in /  1021.9 hPa Calm     87 % 0.00 in /  0 mm
00:31 44.3 °F /  6.8 °C 40.4 °F /  4.7 °C 30.18 in /  1021.9 hPa Calm     86 % 0.00 in /  0 mm
00:36 44.7 °F /  7.1 °C 40.5 °F /  4.7 °C 30.18 in /  1021.9 hPa Calm     85 % 0.00 in /  0 mm
00:40 44.9 °F /  7.2 °C 40.7 °F /  4.8 °C 30.18 in /  1021.9 hPa Calm     85 % 0.00 in /  0 mm
00:45 44.9 °F /  7.2 °C 40.4 °F /  4.7 °C 30.18 in /  1021.9 hPa Calm     84 % 0.00 in /  0 mm
00:48 44.9 °F /  7.2 °C 40.4 °F /  4.7 °C 30.18 in /  1021.9 hPa Calm     84 % 0.00 in /  0 mm
00:53 44.9 °F /  7.2 °C 40.4 °F /  4.7 °C 30.17 in /  1021.6 hPa Calm     84 % 0.00 in /  0 mm
00:58 44.9 °F /  7.2 °C 40.4 °F /  4.7 °C 30.17 in /  1021.6 hPa Calm     84 % 0.00 in /  0 mm
01:03 44.9 °F /  7.2 °C 40.7 °F /  4.8 °C 30.17 in /  1021.6 hPa Calm     85 % 0.00 in /  0 mm
01:09 44.7 °F /  7.1 °C 40.8 °F /  4.9 °C 30.17 in /  1021.6 hPa Calm     86 % 0.00 in /  0 mm
01:14 44.6 °F /  7 °C 40.7 °F /  4.8 °C 30.18 in /  1021.9 hPa Calm     86 % 0.00 in /  0 mm
01:17 44.4 °F /  6.9 °C 40.5 °F /  4.7 °C 30.18 in /  1021.9 hPa Calm     86 % 0.00 in /  0 mm
01:22 44.1 °F /  6.7 °C 40.2 °F /  4.6 °C 30.17 in /  1021.6 hPa Calm     86 % 0.00 in /  0 mm
01:23 44.1 °F /  6.7 °C 40.2 °F /  4.6 °C 30.17 in /  1021.6 hPa Calm     86 % 0.00 in /  0 mm
01:28 43.9 °F /  6.6 °C 40.3 °F /  4.6 °C 30.17 in /  1021.6 hPa Calm     87 % 0.00 in /  0 mm
01:33 43.7 °F /  6.5 °C 40.1 °F /  4.5 °C 30.17 in /  1021.6 hPa Calm     87 % 0.00 in /  0 mm
01:38 43.7 °F /  6.5 °C 40.1 °F /  4.5 °C 30.17 in /  1021.6 hPa Calm     87 % 0.00 in /  0 mm
01:43 43.8 °F /  6.6 °C 40.2 °F /  4.6 °C 30.17 in /  1021.6 hPa Calm     87 % 0.00 in /  0 mm
01:48 44.1 °F /  6.7 °C 40.2 °F /  4.6 °C 30.17 in /  1021.6 hPa Calm     86 % 0.00 in /  0 mm
01:53 44.5 °F /  6.9 °C 40.0 °F /  4.4 °C 30.17 in /  1021.6 hPa Calm     84 % 0.00 in /  0 mm
01:58 44.8 °F /  7.1 °C 40.0 °F /  4.4 °C 30.17 in /  1021.6 hPa Calm     83 % 0.00 in /  0 mm
02:03 45.0 °F /  7.2 °C 39.8 °F /  4.3 °C 30.17 in /  1021.6 hPa Calm     82 % 0.00 in /  0 mm
02:08 45.0 °F /  7.2 °C 39.8 °F /  4.3 °C 30.17 in /  1021.6 hPa ESE 2.3 mph /  3.7 km/h 2.3 mph /  3.7 km/h 82 % 0.00 in /  0 mm
02:13 45.2 °F /  7.3 °C 39.7 °F /  4.3 °C 30.17 in /  1021.6 hPa ESE 1.2 mph /  1.9 km/h   81 % 0.00 in /  0 mm
02:18 45.3 °F /  7.4 °C 39.8 °F /  4.3 °C 30.17 in /  1021.6 hPa Calm     81 % 0.00 in /  0 mm
02:23 45.4 °F /  7.4 °C 39.9 °F /  4.4 °C 30.17 in /  1021.6 hPa ESE 1.2 mph /  1.9 km/h 1.2 mph /  1.9 km/h 81 % 0.00 in /  0 mm
02:28 45.6 °F /  7.6 °C 39.8 °F /  4.3 °C 30.17 in /  1021.6 hPa ESE 1.0 mph /  1.6 km/h   80 % 0.00 in /  0 mm
02:33 45.7 °F /  7.6 °C 39.6 °F /  4.2 °C 30.17 in /  1021.6 hPa Calm     79 % 0.00 in /  0 mm
02:38 45.7 °F /  7.6 °C 39.9 °F /  4.4 °C 30.16 in /  1021.2 hPa Calm     80 % 0.00 in /  0 mm
02:43 45.6 °F /  7.6 °C 39.8 °F /  4.3 °C 30.16 in /  1021.2 hPa ESE 1.2 mph /  1.9 km/h 1.2 mph /  1.9 km/h 80 % 0.00 in /  0 mm
02:48 45.5 °F /  7.5 °C 40.0 °F /  4.4 °C 30.15 in /  1020.9 hPa ESE 1.2 mph /  1.9 km/h 1.2 mph /  1.9 km/h 81 % 0.00 in /  0 mm
02:53 45.3 °F /  7.4 °C 39.8 °F /  4.3 °C 30.15 in /  1020.9 hPa Calm     81 % 0.00 in /  0 mm
02:58 45.2 °F /  7.3 °C 39.7 °F /  4.3 °C 30.15 in /  1020.9 hPa ESE 1.2 mph /  1.9 km/h   81 % 0.00 in /  0 mm
03:03 45.1 °F /  7.3 °C 39.6 °F /  4.2 °C 30.15 in /  1020.9 hPa Calm     81 % 0.00 in /  0 mm
03:09 45.0 °F /  7.2 °C 39.5 °F /  4.2 °C 30.15 in /  1020.9 hPa ESE 1.2 mph /  1.9 km/h   81 % 0.00 in /  0 mm
03:14 44.8 °F /  7.1 °C 39.6 °F /  4.2 °C 30.15 in /  1020.9 hPa ESE 1.2 mph /  1.9 km/h 1.2 mph /  1.9 km/h 82 % 0.00 in /  0 mm
03:19 44.6 °F /  7 °C 39.4 °F /  4.1 °C 30.15 in /  1020.9 hPa Calm     82 % 0.00 in /  0 mm
03:24 44.6 °F /  7 °C 39.4 °F /  4.1 °C 30.15 in /  1020.9 hPa Calm     82 % 0.00 in /  0 mm
03:29 44.7 °F /  7.1 °C 39.5 °F /  4.2 °C 30.15 in /  1020.9 hPa Calm     82 % 0.00 in /  0 mm
03:34 44.7 °F /  7.1 °C 39.5 °F /  4.2 °C 30.15 in /  1020.9 hPa Calm     82 % 0.00 in /  0 mm
03:39 44.7 °F /  7.1 °C 39.5 °F /  4.2 °C 30.15 in /  1020.9 hPa Calm     82 % 0.00 in /  0 mm
03:44 44.8 °F /  7.1 °C 39.6 °F /  4.2 °C 30.15 in /  1020.9 hPa Calm     82 % 0.00 in /  0 mm
03:49 44.7 °F /  7.1 °C 39.5 °F /  4.2 °C 30.16 in /  1021.2 hPa Calm     82 % 0.00 in /  0 mm
03:54 44.8 °F /  7.1 °C 39.6 °F /  4.2 °C 30.16 in /  1021.2 hPa Calm     82 % 0.00 in /  0 mm
03:59 44.8 °F /  7.1 °C 39.6 °F /  4.2 °C 30.16 in /  1021.2 hPa Calm     82 % 0.00 in /  0 mm
04:04 44.9 °F /  7.2 °C 39.7 °F /  4.3 °C 30.16 in /  1021.2 hPa Calm     82 % 0.00 in /  0 mm
04:09 45.1 °F /  7.3 °C 39.9 °F /  4.4 °C 30.16 in /  1021.2 hPa ESE 1.2 mph /  1.9 km/h 1.2 mph /  1.9 km/h 82 % 0.00 in /  0 mm
04:14 45.1 °F /  7.3 °C 39.9 °F /  4.4 °C 30.16 in /  1021.2 hPa ESE 1.0 mph /  1.6 km/h   82 % 0.00 in /  0 mm
04:19 45.2 °F /  7.3 °C 40.0 °F /  4.4 °C 30.16 in /  1021.2 hPa ESE 1.2 mph /  1.9 km/h 1.2 mph /  1.9 km/h 82 % 0.00 in /  0 mm
04:24 45.4 °F /  7.4 °C 40.5 °F /  4.7 °C 30.15 in /  1020.9 hPa Calm     83 % 0.00 in /  0 mm
04:29 45.5 °F /  7.5 °C 40.6 °F /  4.8 °C 30.15 in /  1020.9 hPa ESE 1.2 mph /  1.9 km/h 1.2 mph /  1.9 km/h 83 % 0.00 in /  0 mm
04:34 45.5 °F /  7.5 °C 40.6 °F /  4.8 °C 30.15 in /  1020.9 hPa Calm     83 % 0.00 in /  0 mm
04:39 45.6 °F /  7.6 °C 40.7 °F /  4.8 °C 30.15 in /  1020.9 hPa Calm     83 % 0.00 in /  0 mm
04:44 45.7 °F /  7.6 °C 40.8 °F /  4.9 °C 30.15 in /  1020.9 hPa Calm     83 % 0.00 in /  0 mm
04:49 46.0 °F /  7.8 °C 40.8 °F /  4.9 °C 30.15 in /  1020.9 hPa ESE 1.2 mph /  1.9 km/h   82 % 0.00 in /  0 mm
04:54 46.3 °F /  7.9 °C 41.1 °F /  5.1 °C 30.15 in /  1020.9 hPa ESE 1.2 mph /  1.9 km/h   82 % 0.00 in /  0 mm
04:59 46.5 °F /  8.1 °C 41.3 °F /  5.2 °C 30.14 in /  1020.5 hPa ESE 1.2 mph /  1.9 km/h   82 % 0.00 in /  0 mm
05:04 46.5 °F /  8.1 °C 41.3 °F /  5.2 °C 30.15 in /  1020.9 hPa ESE 1.2 mph /  1.9 km/h   82 % 0.00 in /  0 mm
05:09 46.4 °F /  8 °C 41.2 °F /  5.1 °C 30.14 in /  1020.5 hPa ESE 1.2 mph /  1.9 km/h   82 % 0.00 in /  0 mm
05:14 46.5 °F /  8.1 °C 41.6 °F /  5.3 °C 30.14 in /  1020.5 hPa Calm     83 % 0.00 in /  0 mm
05:19 46.5 °F /  8.1 °C 41.3 °F /  5.2 °C 30.14 in /  1020.5 hPa Calm     82 % 0.00 in /  0 mm
05:25 46.3 °F /  7.9 °C 41.4 °F /  5.2 °C 30.14 in /  1020.5 hPa Calm     83 % 0.00 in /  0 mm
05:30 46.1 °F /  7.8 °C 41.2 °F /  5.1 °C 30.14 in /  1020.5 hPa Calm     83 % 0.00 in /  0 mm
05:35 45.9 °F /  7.7 °C 41.3 °F /  5.2 °C 30.13 in /  1020.2 hPa Calm     84 % 0.00 in /  0 mm
05:40 45.7 °F /  7.6 °C 41.1 °F /  5.1 °C 30.13 in /  1020.2 hPa Calm     84 % 0.00 in /  0 mm
05:45 45.6 °F /  7.6 °C 41.0 °F /  5 °C 30.13 in /  1020.2 hPa Calm     84 % 0.00 in /  0 mm
05:50 45.5 °F /  7.5 °C 41.3 °F /  5.2 °C 30.13 in /  1020.2 hPa Calm     85 % 0.00 in /  0 mm
05:55 45.1 °F /  7.3 °C 40.9 °F /  4.9 °C 30.13 in /  1020.2 hPa Calm     85 % 0.00 in /  0 mm
06:00 44.8 °F /  7.1 °C 40.6 °F /  4.8 °C 30.12 in /  1019.9 hPa Calm     85 % 0.00 in /  0 mm
06:05 44.7 °F /  7.1 °C 40.8 °F /  4.9 °C 30.12 in /  1019.9 hPa Calm     86 % 0.00 in /  0 mm
06:10 44.6 °F /  7 °C 41.0 °F /  5 °C 30.12 in /  1019.9 hPa Calm     87 % 0.00 in /  0 mm
06:15 44.5 °F /  6.9 °C 40.9 °F /  4.9 °C 30.12 in /  1019.9 hPa Calm     87 % 0.00 in /  0 mm
06:20 44.4 °F /  6.9 °C 40.8 °F /  4.9 °C 30.12 in /  1019.9 hPa Calm     87 % 0.00 in /  0 mm
06:25 44.3 °F /  6.8 °C 40.7 °F /  4.8 °C 30.12 in /  1019.9 hPa Calm     87 % 0.00 in /  0 mm
06:30 44.1 °F /  6.7 °C 40.5 °F /  4.7 °C 30.12 in /  1019.9 hPa Calm     87 % 0.00 in /  0 mm
06:35 43.9 °F /  6.6 °C 40.6 °F /  4.8 °C 30.12 in /  1019.9 hPa Calm     88 % 0.00 in /  0 mm
06:40 43.9 °F /  6.6 °C 40.6 °F /  4.8 °C 30.12 in /  1019.9 hPa Calm     88 % 0.00 in /  0 mm
06:45 43.9 °F /  6.6 °C 40.6 °F /  4.8 °C 30.12 in /  1019.9 hPa Calm     88 % 0.00 in /  0 mm
06:50 43.9 °F /  6.6 °C 40.6 °F /  4.8 °C 30.12 in /  1019.9 hPa Calm     88 % 0.00 in /  0 mm
06:55 43.8 °F /  6.6 °C 40.5 °F /  4.7 °C 30.12 in /  1019.9 hPa Calm     88 % 0.00 in /  0 mm
06:59 43.8 °F /  6.6 °C 40.5 °F /  4.7 °C 30.12 in /  1019.9 hPa ESE 1.2 mph /  1.9 km/h   88 % 0.00 in /  0 mm
07:04 43.9 °F /  6.6 °C 40.6 °F /  4.8 °C 30.12 in /  1019.9 hPa Calm     88 % 0.00 in /  0 mm
07:09 44.0 °F /  6.7 °C 40.7 °F /  4.8 °C 30.12 in /  1019.9 hPa Calm     88 % 0.00 in /  0 mm
07:14 44.3 °F /  6.8 °C 41.0 °F /  5 °C 30.12 in /  1019.9 hPa Calm     88 % 0.00 in /  0 mm
07:19 44.5 °F /  6.9 °C 41.2 °F /  5.1 °C 30.12 in /  1019.9 hPa Calm     88 % 0.00 in /  0 mm
07:24 44.8 °F /  7.1 °C 41.2 °F /  5.1 °C 30.13 in /  1020.2 hPa Calm     87 % 0.00 in /  0 mm
07:29 45.2 °F /  7.3 °C 41.6 °F /  5.3 °C 30.13 in /  1020.2 hPa Calm     87 % 0.00 in /  0 mm
07:34 45.5 °F /  7.5 °C 41.6 °F /  5.3 °C 30.13 in /  1020.2 hPa Calm     86 % 0.00 in /  0 mm
07:39 45.7 °F /  7.6 °C 41.8 °F /  5.4 °C 30.13 in /  1020.2 hPa Calm     86 % 0.00 in /  0 mm
07:44 46.0 °F /  7.8 °C 41.7 °F /  5.4 °C 30.13 in /  1020.2 hPa Calm     85 % 0.00 in /  0 mm
07:49 46.3 °F /  7.9 °C 41.7 °F /  5.4 °C 30.13 in /  1020.2 hPa Calm     84 % 0.00 in /  0 mm
07:54 46.7 °F /  8.2 °C 41.8 °F /  5.4 °C 30.13 in /  1020.2 hPa ESE 2.3 mph /  3.7 km/h 2.3 mph /  3.7 km/h 83 % 0.00 in /  0 mm
08:00 47.1 °F /  8.4 °C 42.2 °F /  5.7 °C 30.13 in /  1020.2 hPa ESE 2.3 mph /  3.7 km/h 2.3 mph /  3.7 km/h 83 % 0.00 in /  0 mm
08:05 47.3 °F /  8.5 °C 41.4 °F /  5.2 °C 30.13 in /  1020.2 hPa SSE 3.5 mph /  5.6 km/h 3.5 mph /  5.6 km/h 80 % 0.00 in /  0 mm
08:10 47.5 °F /  8.6 °C 41.6 °F /  5.3 °C 30.13 in /  1020.2 hPa SSE 2.3 mph /  3.7 km/h 2.3 mph /  3.7 km/h 80 % 0.00 in /  0 mm
08:15 47.7 °F /  8.7 °C 41.8 °F /  5.4 °C 30.13 in /  1020.2 hPa SSE 1.2 mph /  1.9 km/h 1.2 mph /  1.9 km/h 80 % 0.00 in /  0 mm
08:20 47.9 °F /  8.8 °C 41.4 °F /  5.2 °C 30.13 in /  1020.2 hPa SE 1.2 mph /  1.9 km/h   78 % 0.00 in /  0 mm
08:25 48.0 °F /  8.9 °C 41.1 °F /  5.1 °C 30.13 in /  1020.2 hPa SE 1.2 mph /  1.9 km/h 1.2 mph /  1.9 km/h 77 % 0.00 in /  0 mm
08:30 48.2 °F /  9 °C 41.3 °F /  5.2 °C 30.13 in /  1020.2 hPa SE 1.2 mph /  1.9 km/h   77 % 0.00 in /  0 mm
08:35 48.4 °F /  9.1 °C 41.2 °F /  5.1 °C 30.13 in /  1020.2 hPa SE 1.2 mph /  1.9 km/h 1.2 mph /  1.9 km/h 76 % 0.00 in /  0 mm
08:40 48.6 °F /  9.2 °C 41.0 °F /  5 °C 30.13 in /  1020.2 hPa SE 1.2 mph /  1.9 km/h 1.2 mph /  1.9 km/h 75 % 0.00 in /  0 mm
08:45 48.9 °F /  9.4 °C 41.0 °F /  5 °C 30.13 in /  1020.2 hPa SE 1.0 mph /  1.6 km/h   74 % 0.00 in /  0 mm
08:50 49.2 °F /  9.6 °C 41.3 °F /  5.2 °C 30.13 in /  1020.2 hPa Calm     74 % 0.00 in /  0 mm
08:55 49.4 °F /  9.7 °C 41.1 °F /  5.1 °C 30.13 in /  1020.2 hPa Calm     73 % 0.00 in /  0 mm
09:00 49.6 °F /  9.8 °C 41.7 °F /  5.4 °C 30.13 in /  1020.2 hPa Calm     74 % 0.00 in /  0 mm
09:05 49.8 °F /  9.9 °C 41.5 °F /  5.3 °C 30.13 in /  1020.2 hPa Calm     73 % 0.00 in /  0 mm
09:10 50.1 °F /  10.1 °C 42.1 °F /  5.6 °C 30.14 in /  1020.5 hPa Calm     74 % 0.00 in /  0 mm
09:15 50.3 °F /  10.2 °C 42.3 °F /  5.7 °C 30.14 in /  1020.5 hPa Calm     74 % 0.00 in /  0 mm
09:20 50.4 °F /  10.2 °C 42.1 °F /  5.6 °C 30.14 in /  1020.5 hPa Calm     73 % 0.00 in /  0 mm
09:25 50.5 °F /  10.3 °C 41.8 °F /  5.4 °C 30.14 in /  1020.5 hPa Calm     72 % 0.00 in /  0 mm
09:30 50.6 °F /  10.3 °C 43.0 °F /  6.1 °C 30.14 in /  1020.5 hPa Calm     75 % 0.00 in /  0 mm
09:35 50.5 °F /  10.3 °C 43.6 °F /  6.4 °C 30.14 in /  1020.5 hPa Calm     77 % 0.00 in /  0 mm
09:40 50.5 °F /  10.3 °C 44.6 °F /  7 °C 30.13 in /  1020.2 hPa Calm     80 % 0.00 in /  0 mm
09:45 50.4 °F /  10.2 °C 44.5 °F /  6.9 °C 30.13 in /  1020.2 hPa ESE 1.2 mph /  1.9 km/h 1.2 mph /  1.9 km/h 80 % 0.00 in /  0 mm
09:50 50.5 °F /  10.3 °C 44.6 °F /  7 °C 30.13 in /  1020.2 hPa Calm     80 % 0.00 in /  0 mm
09:55 50.7 °F /  10.4 °C 44.1 °F /  6.7 °C 30.13 in /  1020.2 hPa Calm     78 % 0.00 in /  0 mm
10:00 51.0 °F /  10.6 °C 44.7 °F /  7.1 °C 30.13 in /  1020.2 hPa Calm     79 % 0.00 in /  0 mm
10:05 51.3 °F /  10.7 °C 45.0 °F /  7.2 °C 30.12 in /  1019.9 hPa NE 1.2 mph /  1.9 km/h   79 % 0.00 in /  0 mm
10:10 51.8 °F /  11 °C 44.8 °F /  7.1 °C 30.13 in /  1020.2 hPa NNE 1.2 mph /  1.9 km/h   77 % 0.00 in /  0 mm
10:15 52.2 °F /  11.2 °C 44.5 °F /  6.9 °C 30.13 in /  1020.2 hPa East 1.0 mph /  1.6 km/h   75 % 0.00 in /  0 mm
10:20 52.6 °F /  11.4 °C 44.2 °F /  6.8 °C 30.11 in /  1019.5 hPa East 1.2 mph /  1.9 km/h 1.2 mph /  1.9 km/h 73 % 0.00 in /  0 mm
10:25 53.4 °F /  11.9 °C 44.6 °F /  7 °C 30.11 in /  1019.5 hPa SE 1.2 mph /  1.9 km/h   72 % 0.00 in /  0 mm
10:30 54.0 °F /  12.2 °C 44.1 °F /  6.7 °C 30.12 in /  1019.9 hPa Calm     69 % 0.00 in /  0 mm
10:35 54.4 °F /  12.4 °C 43.3 °F /  6.3 °C 30.13 in /  1020.2 hPa SE 1.2 mph /  1.9 km/h   66 % 0.00 in /  0 mm
10:40 54.7 °F /  12.6 °C 44.0 °F /  6.7 °C 30.13 in /  1020.2 hPa Calm     67 % 0.00 in /  0 mm
10:45 55.0 °F /  12.8 °C 44.2 °F /  6.8 °C 30.13 in /  1020.2 hPa Calm     67 % 0.00 in /  0 mm
10:50 55.1 °F /  12.8 °C 44.3 °F /  6.8 °C 30.13 in /  1020.2 hPa NW 1.0 mph /  1.6 km/h   67 % 0.00 in /  0 mm
10:55 55.0 °F /  12.8 °C 44.6 °F /  7 °C 30.13 in /  1020.2 hPa Calm     68 % 0.00 in /  0 mm
11:00 54.9 °F /  12.7 °C 44.5 °F /  6.9 °C 30.13 in /  1020.2 hPa NW 1.2 mph /  1.9 km/h 1.2 mph /  1.9 km/h 68 % 0.00 in /  0 mm
11:02 55.0 °F /  12.8 °C 45.0 °F /  7.2 °C 30.12 in /  1019.9 hPa WNW 1.2 mph /  1.9 km/h 1.2 mph /  1.9 km/h 69 % 0.00 in /  0 mm
11:07 55.3 °F /  12.9 °C 44.5 °F /  6.9 °C 30.12 in /  1019.9 hPa Calm     67 % 0.00 in /  0 mm
11:12 55.5 °F /  13.1 °C 44.3 °F /  6.8 °C 30.12 in /  1019.9 hPa Calm     66 % 0.00 in /  0 mm
11:17 55.7 °F /  13.2 °C 44.9 °F /  7.2 °C 30.12 in /  1019.9 hPa Calm     67 % 0.00 in /  0 mm
11:22 56.0 °F /  13.3 °C 44.8 °F /  7.1 °C 30.12 in /  1019.9 hPa NW 2.0 mph /  3.2 km/h 2.0 mph /  3.2 km/h 66 % 0.00 in /  0 mm
11:27 56.2 °F /  13.4 °C 44.6 °F /  7 °C 30.11 in /  1019.5 hPa WNW 1.2 mph /  1.9 km/h   65 % 0.00 in /  0 mm
11:32 56.8 °F /  13.8 °C 44.3 °F /  6.8 °C 30.11 in /  1019.5 hPa East 1.2 mph /  1.9 km/h 1.2 mph /  1.9 km/h 63 % 0.00 in /  0 mm
11:37 57.1 °F /  13.9 °C 42.9 °F /  6.1 °C 30.11 in /  1019.5 hPa SW 1.2 mph /  1.9 km/h   59 % 0.00 in /  0 mm
11:42 57.4 °F /  14.1 °C 43.6 °F /  6.4 °C 30.11 in /  1019.5 hPa SE 2.3 mph /  3.7 km/h 2.3 mph /  3.7 km/h 60 % 0.00 in /  0 mm
11:47 57.5 °F /  14.2 °C 43.7 °F /  6.5 °C 30.11 in /  1019.5 hPa ESE 1.2 mph /  1.9 km/h 1.2 mph /  1.9 km/h 60 % 0.00 in /  0 mm
11:52 57.6 °F /  14.2 °C 42.5 °F /  5.8 °C 30.10 in /  1019.2 hPa ESE 2.3 mph /  3.7 km/h 2.3 mph /  3.7 km/h 57 % 0.00 in /  0 mm
11:57 57.9 °F /  14.4 °C 42.8 °F /  6 °C 30.10 in /  1019.2 hPa SE 2.3 mph /  3.7 km/h 2.3 mph /  3.7 km/h 57 % 0.00 in /  0 mm
12:02 58.2 °F /  14.6 °C 42.1 °F /  5.6 °C 30.10 in /  1019.2 hPa SE 3.5 mph /  5.6 km/h 3.5 mph /  5.6 km/h 55 % 0.00 in /  0 mm
12:07 58.3 °F /  14.6 °C 41.2 °F /  5.1 °C 30.10 in /  1019.2 hPa ESE 2.3 mph /  3.7 km/h 2.3 mph /  3.7 km/h 53 % 0.00 in /  0 mm
12:12 58.4 °F /  14.7 °C 41.8 °F /  5.4 °C 30.09 in /  1018.8 hPa SE 3.0 mph /  4.8 km/h 3.0 mph /  4.8 km/h 54 % 0.00 in /  0 mm
12:17 58.4 °F /  14.7 °C 41.8 °F /  5.4 °C 30.10 in /  1019.2 hPa SE 6.0 mph /  9.7 km/h 6.0 mph /  9.7 km/h 54 % 0.00 in /  0 mm
12:22 58.4 °F /  14.7 °C 41.8 °F /  5.4 °C 30.10 in /  1019.2 hPa SE 2.3 mph /  3.7 km/h 2.3 mph /  3.7 km/h 54 % 0.00 in /  0 mm
12:27 58.4 °F /  14.7 °C 42.3 °F /  5.7 °C 30.09 in /  1018.8 hPa East 2.3 mph /  3.7 km/h 2.3 mph /  3.7 km/h 55 % 0.00 in /  0 mm
12:32 58.5 °F /  14.7 °C 42.4 °F /  5.8 °C 30.09 in /  1018.8 hPa ESE 1.2 mph /  1.9 km/h 1.2 mph /  1.9 km/h 55 % 0.00 in /  0 mm
12:37 58.6 °F /  14.8 °C 42.9 °F /  6.1 °C 30.09 in /  1018.8 hPa ESE 1.2 mph /  1.9 km/h 1.2 mph /  1.9 km/h 56 % 0.00 in /  0 mm
12:42 58.8 °F /  14.9 °C 43.1 °F /  6.2 °C 30.08 in /  1018.5 hPa East 1.2 mph /  1.9 km/h 1.2 mph /  1.9 km/h 56 % 0.00 in /  0 mm
12:47 58.9 °F /  14.9 °C 42.8 °F /  6 °C 30.08 in /  1018.5 hPa ESE 1.2 mph /  1.9 km/h 1.2 mph /  1.9 km/h 55 % 0.00 in /  0 mm
12:52 59.0 °F /  15 °C 44.2 °F /  6.8 °C 30.08 in /  1018.5 hPa ESE 1.2 mph /  1.9 km/h 1.2 mph /  1.9 km/h 58 % 0.00 in /  0 mm
12:57 59.0 °F /  15 °C 45.6 °F /  7.6 °C 30.07 in /  1018.2 hPa SE 1.2 mph /  1.9 km/h 1.2 mph /  1.9 km/h 61 % 0.00 in /  0 mm
13:02 59.0 °F /  15 °C 46.0 °F /  7.8 °C 30.07 in /  1018.2 hPa SE 1.2 mph /  1.9 km/h 1.2 mph /  1.9 km/h 62 % 0.00 in /  0 mm
13:07 59.0 °F /  15 °C 45.6 °F /  7.6 °C 30.07 in /  1018.2 hPa SE 3.0 mph /  4.8 km/h 3.0 mph /  4.8 km/h 61 % 0.00 in /  0 mm
13:13 59.2 °F /  15.1 °C 45.3 °F /  7.4 °C 30.07 in /  1018.2 hPa SE 3.5 mph /  5.6 km/h 3.5 mph /  5.6 km/h 60 % 0.00 in /  0 mm
13:18 59.6 °F /  15.3 °C 44.8 °F /  7.1 °C 30.07 in /  1018.2 hPa ESE 3.5 mph /  5.6 km/h 3.5 mph /  5.6 km/h 58 % 0.00 in /  0 mm
13:23 60.0 °F /  15.6 °C 44.7 °F /  7.1 °C 30.06 in /  1017.8 hPa ENE 1.2 mph /  1.9 km/h 1.2 mph /  1.9 km/h 57 % 0.00 in /  0 mm
13:28 60.6 °F /  15.9 °C 45.3 °F /  7.4 °C 30.06 in /  1017.8 hPa East 2.3 mph /  3.7 km/h 2.3 mph /  3.7 km/h 57 % 0.00 in /  0 mm
13:33 61.3 °F /  16.3 °C 45.0 °F /  7.2 °C 30.06 in /  1017.8 hPa ENE 3.5 mph /  5.6 km/h 3.5 mph /  5.6 km/h 55 % 0.00 in /  0 mm
13:38 61.4 °F /  16.3 °C 44.1 °F /  6.7 °C 30.06 in /  1017.8 hPa East 4.6 mph /  7.4 km/h 4.6 mph /  7.4 km/h 53 % 0.00 in /  0 mm
13:43 61.4 °F /  16.3 °C 43.6 °F /  6.4 °C 30.06 in /  1017.8 hPa SE 3.5 mph /  5.6 km/h 3.5 mph /  5.6 km/h 52 % 0.00 in /  0 mm
13:48 61.9 °F /  16.6 °C 44.1 °F /  6.7 °C 30.06 in /  1017.8 hPa SSE 4.6 mph /  7.4 km/h 4.6 mph /  7.4 km/h 52 % 0.00 in /  0 mm
13:53 62.3 °F /  16.8 °C 43.9 °F /  6.6 °C 30.05 in /  1017.5 hPa SE 9.0 mph /  14.5 km/h 9.0 mph /  14.5 km/h 51 % 0.00 in /  0 mm
13:58 62.3 °F /  16.8 °C 43.4 °F /  6.3 °C 30.05 in /  1017.5 hPa East 5.8 mph /  9.3 km/h 5.8 mph /  9.3 km/h 50 % 0.00 in /  0 mm
14:03 62.2 °F /  16.8 °C 43.3 °F /  6.3 °C 30.05 in /  1017.5 hPa ESE 5.8 mph /  9.3 km/h 5.8 mph /  9.3 km/h 50 % 0.00 in /  0 mm
14:08 62.2 °F /  16.8 °C 43.8 °F /  6.6 °C 30.05 in /  1017.5 hPa SSE 7.0 mph /  11.3 km/h 7.0 mph /  11.3 km/h 51 % 0.00 in /  0 mm
14:13 61.8 °F /  16.6 °C 44.0 °F /  6.7 °C 30.05 in /  1017.5 hPa SE 6.9 mph /  11.1 km/h 6.9 mph /  11.1 km/h 52 % 0.00 in /  0 mm
14:18 61.6 °F /  16.4 °C 44.3 °F /  6.8 °C 30.05 in /  1017.5 hPa South 3.5 mph /  5.6 km/h 3.5 mph /  5.6 km/h 53 % 0.00 in /  0 mm
14:23 61.4 °F /  16.3 °C 44.1 °F /  6.7 °C 30.04 in /  1017.2 hPa SSE 4.6 mph /  7.4 km/h 4.6 mph /  7.4 km/h 53 % 0.00 in /  0 mm
14:28 61.2 °F /  16.2 °C 44.4 °F /  6.9 °C 30.04 in /  1017.2 hPa ESE 4.6 mph /  7.4 km/h 4.6 mph /  7.4 km/h 54 % 0.00 in /  0 mm
14:33 61.1 °F /  16.2 °C 44.8 °F /  7.1 °C 30.04 in /  1017.2 hPa East 3.5 mph /  5.6 km/h 3.5 mph /  5.6 km/h 55 % 0.00 in /  0 mm
14:38 61.0 °F /  16.1 °C 44.7 °F /  7.1 °C 30.04 in /  1017.2 hPa ENE 6.0 mph /  9.7 km/h 6.0 mph /  9.7 km/h 55 % 0.00 in /  0 mm
14:43 60.9 °F /  16.1 °C 44.6 °F /  7 °C 30.04 in /  1017.2 hPa SSE 2.3 mph /  3.7 km/h 2.3 mph /  3.7 km/h 55 % 0.00 in /  0 mm
14:48 60.9 °F /  16.1 °C 44.6 °F /  7 °C 30.03 in /  1016.8 hPa ENE 5.8 mph /  9.3 km/h 5.8 mph /  9.3 km/h 55 % 0.00 in /  0 mm
14:53 61.4 °F /  16.3 °C 45.6 °F /  7.6 °C 30.03 in /  1016.8 hPa SSE 2.0 mph /  3.2 km/h 2.0 mph /  3.2 km/h 56 % 0.00 in /  0 mm
14:58 62.0 °F /  16.7 °C 45.2 °F /  7.3 °C 30.03 in /  1016.8 hPa SSW 3.5 mph /  5.6 km/h 3.5 mph /  5.6 km/h 54 % 0.00 in /  0 mm
15:03 62.1 °F /  16.7 °C 45.2 °F /  7.3 °C 30.03 in /  1016.8 hPa SSE 2.3 mph /  3.7 km/h 2.3 mph /  3.7 km/h 54 % 0.00 in /  0 mm
15:08 62.1 °F /  16.7 °C 44.3 °F /  6.8 °C 30.02 in /  1016.5 hPa WSW 6.9 mph /  11.1 km/h 6.9 mph /  11.1 km/h 52 % 0.00 in /  0 mm
15:13 62.0 °F /  16.7 °C 44.7 °F /  7.1 °C 30.02 in /  1016.5 hPa ENE 3.5 mph /  5.6 km/h 3.5 mph /  5.6 km/h 53 % 0.00 in /  0 mm
15:18 61.6 °F /  16.4 °C 44.3 °F /  6.8 °C 30.02 in /  1016.5 hPa SSE 5.8 mph /  9.3 km/h 5.8 mph /  9.3 km/h 53 % 0.00 in /  0 mm
15:23 61.2 °F /  16.2 °C 44.4 °F /  6.9 °C 30.02 in /  1016.5 hPa SSE 3.5 mph /  5.6 km/h 3.5 mph /  5.6 km/h 54 % 0.00 in /  0 mm
15:28 61.0 °F /  16.1 °C 44.7 °F /  7.1 °C 30.02 in /  1016.5 hPa SSE 1.2 mph /  1.9 km/h 1.2 mph /  1.9 km/h 55 % 0.00 in /  0 mm
15:33 60.8 °F /  16 °C 45.0 °F /  7.2 °C 30.02 in /  1016.5 hPa SSE 3.5 mph /  5.6 km/h 3.5 mph /  5.6 km/h 56 % 0.00 in /  0 mm
15:38 60.6 °F /  15.9 °C 45.3 °F /  7.4 °C 30.02 in /  1016.5 hPa SE 3.5 mph /  5.6 km/h 3.5 mph /  5.6 km/h 57 % 0.00 in /  0 mm
15:43 60.4 °F /  15.8 °C 46.0 °F /  7.8 °C 30.01 in /  1016.1 hPa ESE 1.2 mph /  1.9 km/h 1.2 mph /  1.9 km/h 59 % 0.00 in /  0 mm
15:48 60.2 °F /  15.7 °C 46.7 °F /  8.2 °C 30.01 in /  1016.1 hPa Calm     61 % 0.00 in /  0 mm
15:53 60.0 °F /  15.6 °C 47.4 °F /  8.6 °C 30.01 in /  1016.1 hPa Calm     63 % 0.00 in /  0 mm
15:58 59.9 °F /  15.5 °C 47.7 °F /  8.7 °C 30.01 in /  1016.1 hPa Calm     64 % 0.00 in /  0 mm
16:03 59.7 °F /  15.4 °C 46.7 °F /  8.2 °C 30.01 in /  1016.1 hPa SSE 2.3 mph /  3.7 km/h 2.3 mph /  3.7 km/h 62 % 0.00 in /  0 mm
16:08 59.7 °F /  15.4 °C 45.8 °F /  7.7 °C 30.01 in /  1016.1 hPa SSE 2.3 mph /  3.7 km/h 2.3 mph /  3.7 km/h 60 % 0.00 in /  0 mm
16:13 59.7 °F /  15.4 °C 47.1 °F /  8.4 °C 30.01 in /  1016.1 hPa Calm     63 % 0.00 in /  0 mm
16:18 59.7 °F /  15.4 °C 47.9 °F /  8.8 °C 30.01 in /  1016.1 hPa Calm     65 % 0.00 in /  0 mm
16:23 59.7 °F /  15.4 °C 48.7 °F /  9.3 °C 30.01 in /  1016.1 hPa Calm     67 % 0.00 in /  0 mm
16:28 59.4 °F /  15.2 °C 49.2 °F /  9.6 °C 30.00 in /  1015.8 hPa Calm     69 % 0.01 in /  0.25 mm
16:33 59.1 °F /  15.1 °C 50.5 °F /  10.3 °C 30.00 in /  1015.8 hPa Calm     73 % 0.01 in /  0.25 mm
16:38 58.6 °F /  14.8 °C 50.3 °F /  10.2 °C 30.00 in /  1015.8 hPa Calm     74 % 0.01 in /  0.25 mm
16:43 58.3 °F /  14.6 °C 50.0 °F /  10 °C 30.00 in /  1015.8 hPa Calm     74 % 0.01 in /  0.25 mm
16:48 58.1 °F /  14.5 °C 49.9 °F /  9.9 °C 30.00 in /  1015.8 hPa Calm     74 % 0.01 in /  0.25 mm
16:53 57.9 °F /  14.4 °C 49.7 °F /  9.8 °C 30.00 in /  1015.8 hPa SE 1.2 mph /  1.9 km/h 1.2 mph /  1.9 km/h 74 % 0.01 in /  0.25 mm
16:58 57.7 °F /  14.3 °C 49.8 °F /  9.9 °C 30.00 in /  1015.8 hPa Calm     75 % 0.01 in /  0.25 mm
17:03 57.3 °F /  14.1 °C 50.1 °F /  10.1 °C 30.00 in /  1015.8 hPa Calm     77 % 0.02 in /  0.51 mm
17:08 56.9 °F /  13.8 °C 50.1 °F /  10.1 °C 30.00 in /  1015.8 hPa Calm     78 % 0.02 in /  0.51 mm
17:13 56.6 °F /  13.7 °C 50.5 °F /  10.3 °C 30.00 in /  1015.8 hPa Calm     80 % 0.02 in /  0.51 mm
17:18 56.0 °F /  13.3 °C 50.6 °F /  10.3 °C 30.00 in /  1015.8 hPa Calm     82 % 0.02 in /  0.51 mm
17:23 55.6 °F /  13.1 °C 50.8 °F /  10.4 °C 29.99 in /  1015.5 hPa Calm     84 % 0.02 in /  0.51 mm
17:28 55.1 °F /  12.8 °C 50.7 °F /  10.4 °C 30.00 in /  1015.8 hPa Calm     85 % 0.01 in /  0.25 mm
17:33 54.9 °F /  12.7 °C 50.5 °F /  10.3 °C 30.00 in /  1015.8 hPa Calm     85 % 0.02 in /  0.51 mm
17:38 54.7 °F /  12.6 °C 50.3 °F /  10.2 °C 30.00 in /  1015.8 hPa Calm     85 % 0.02 in /  0.51 mm
17:43 54.6 °F /  12.6 °C 50.5 °F /  10.3 °C 30.00 in /  1015.8 hPa Calm     86 % 0.02 in /  0.51 mm
17:48 54.3 °F /  12.4 °C 50.5 °F /  10.3 °C 30.00 in /  1015.8 hPa Calm     87 % 0.02 in /  0.51 mm
17:53 54.1 °F /  12.3 °C 50.3 °F /  10.2 °C 30.00 in /  1015.8 hPa Calm     87 % 0.02 in /  0.51 mm
17:58 54.0 °F /  12.2 °C 50.5 °F /  10.3 °C 30.00 in /  1015.8 hPa Calm     88 % 0.02 in /  0.51 mm
18:03 54.0 °F /  12.2 °C 50.5 °F /  10.3 °C 30.00 in /  1015.8 hPa Calm     88 % 0.01 in /  0.25 mm
18:08 54.0 °F /  12.2 °C 50.5 °F /  10.3 °C 30.00 in /  1015.8 hPa Calm     88 % 0.01 in /  0.25 mm
18:13 54.0 °F /  12.2 °C 50.5 °F /  10.3 °C 30.00 in /  1015.8 hPa Calm     88 % 0.01 in /  0.25 mm
18:18 54.0 °F /  12.2 °C 50.5 °F /  10.3 °C 30.00 in /  1015.8 hPa Calm     88 % 0.02 in /  0.51 mm
18:23 54.1 °F /  12.3 °C 50.9 °F /  10.5 °C 30.00 in /  1015.8 hPa Calm     89 % 0.02 in /  0.51 mm
18:28 54.1 °F /  12.3 °C 50.6 °F /  10.3 °C 30.00 in /  1015.8 hPa Calm     88 % 0.02 in /  0.51 mm
18:33 54.1 °F /  12.3 °C 50.9 °F /  10.5 °C 30.00 in /  1015.8 hPa Calm     89 % 0.01 in /  0.25 mm
18:38 54.0 °F /  12.2 °C 51.1 °F /  10.6 °C 30.00 in /  1015.8 hPa Calm     90 % 0.01 in /  0.25 mm
18:43 53.8 °F /  12.1 °C 50.9 °F /  10.5 °C 30.00 in /  1015.8 hPa Calm     90 % 0.02 in /  0.51 mm
18:48 53.6 °F /  12 °C 50.7 °F /  10.4 °C 30.00 in /  1015.8 hPa Calm     90 % 0.02 in /  0.51 mm
18:53 53.4 °F /  11.9 °C 50.5 °F /  10.3 °C 29.99 in /  1015.5 hPa ESE 1.2 mph /  1.9 km/h 1.2 mph /  1.9 km/h 90 % 0.02 in /  0.51 mm
18:58 53.4 °F /  11.9 °C 50.5 °F /  10.3 °C 29.99 in /  1015.5 hPa Calm     90 % 0.02 in /  0.51 mm
19:03 53.3 °F /  11.8 °C 50.4 °F /  10.2 °C 30.00 in /  1015.8 hPa Calm     90 % 0.02 in /  0.51 mm
19:08 53.2 °F /  11.8 °C 50.3 °F /  10.2 °C 30.00 in /  1015.8 hPa Calm     90 % 0.02 in /  0.51 mm
19:13 53.0 °F /  11.7 °C 50.1 °F /  10.1 °C 30.00 in /  1015.8 hPa Calm     90 % 0.02 in /  0.51 mm
19:18 53.1 °F /  11.7 °C 50.2 °F /  10.1 °C 30.00 in /  1015.8 hPa Calm     90 % 0.01 in /  0.25 mm
19:23 53.0 °F /  11.7 °C 50.4 °F /  10.2 °C 30.00 in /  1015.8 hPa Calm     91 % 0.01 in /  0.25 mm
19:28 53.0 °F /  11.7 °C 50.4 °F /  10.2 °C 30.00 in /  1015.8 hPa ESE 1.2 mph /  1.9 km/h   91 % 0.02 in /  0.51 mm
19:33 52.9 °F /  11.6 °C 50.3 °F /  10.2 °C 30.00 in /  1015.8 hPa Calm     91 % 0.02 in /  0.51 mm
19:38 53.0 °F /  11.7 °C 50.1 °F /  10.1 °C 29.99 in /  1015.5 hPa ESE 1.2 mph /  1.9 km/h   90 % 0.02 in /  0.51 mm
19:43 53.1 °F /  11.7 °C 49.9 °F /  9.9 °C 29.99 in /  1015.5 hPa East 1.2 mph /  1.9 km/h   89 % 0.01 in /  0.25 mm
19:48 53.1 °F /  11.7 °C 49.9 °F /  9.9 °C 29.99 in /  1015.5 hPa Calm     89 % 0.01 in /  0.25 mm
19:53 53.0 °F /  11.7 °C 49.8 °F /  9.9 °C 29.99 in /  1015.5 hPa Calm     89 % 0.01 in /  0.25 mm
19:58 52.9 °F /  11.6 °C 50.0 °F /  10 °C 29.99 in /  1015.5 hPa Calm     90 % 0.02 in /  0.51 mm
20:03 52.9 °F /  11.6 °C 50.0 °F /  10 °C 29.99 in /  1015.5 hPa Calm     90 % 0.03 in /  0.76 mm
20:08 52.8 °F /  11.6 °C 49.9 °F /  9.9 °C 29.99 in /  1015.5 hPa Calm     90 % 0.03 in /  0.76 mm
20:13 52.7 °F /  11.5 °C 49.8 °F /  9.9 °C 29.99 in /  1015.5 hPa Calm     90 % 0.03 in /  0.76 mm
20:18 52.6 °F /  11.4 °C 49.8 °F /  9.9 °C 29.99 in /  1015.5 hPa East 1.0 mph /  1.6 km/h   90 % 0.03 in /  0.76 mm
20:23 52.7 °F /  11.5 °C 49.8 °F /  9.9 °C 30.00 in /  1015.8 hPa NE 1.2 mph /  1.9 km/h   90 % 0.03 in /  0.76 mm
20:28 52.8 °F /  11.6 °C 49.9 °F /  9.9 °C 30.00 in /  1015.8 hPa Calm     90 % 0.03 in /  0.76 mm
20:33 52.7 °F /  11.5 °C 49.8 °F /  9.9 °C 30.00 in /  1015.8 hPa Calm     90 % 0.03 in /  0.76 mm
20:38 52.6 °F /  11.4 °C 49.8 °F /  9.9 °C 29.99 in /  1015.5 hPa Calm     90 % 0.04 in /  1.02 mm
20:43 52.5 °F /  11.4 °C 49.7 °F /  9.8 °C 29.98 in /  1015.1 hPa Calm     90 % 0.04 in /  1.02 mm
20:48 52.5 °F /  11.4 °C 49.7 °F /  9.8 °C 29.98 in /  1015.1 hPa SE 1.2 mph /  1.9 km/h   90 % 0.04 in /  1.02 mm
20:53 52.5 °F /  11.4 °C 49.7 °F /  9.8 °C 29.99 in /  1015.5 hPa Calm     90 % 0.04 in /  1.02 mm
20:58 52.4 °F /  11.3 °C 49.6 °F /  9.8 °C 29.99 in /  1015.5 hPa Calm     90 % 0.03 in /  0.76 mm
21:03 52.4 °F /  11.3 °C 49.6 °F /  9.8 °C 29.98 in /  1015.1 hPa Calm     90 % 0.02 in /  0.51 mm
21:08 52.4 °F /  11.3 °C 49.6 °F /  9.8 °C 29.98 in /  1015.1 hPa Calm     90 % 0.02 in /  0.51 mm
21:13 52.4 °F /  11.3 °C 49.6 °F /  9.8 °C 29.97 in /  1014.8 hPa Calm     90 % 0.02 in /  0.51 mm
21:18 52.4 °F /  11.3 °C 49.6 °F /  9.8 °C 29.97 in /  1014.8 hPa East 2.3 mph /  3.7 km/h 2.3 mph /  3.7 km/h 90 % 0.02 in /  0.51 mm
21:24 52.4 °F /  11.3 °C 49.6 °F /  9.8 °C 29.97 in /  1014.8 hPa Calm     90 % 0.02 in /  0.51 mm
21:29 52.3 °F /  11.3 °C 49.5 °F /  9.7 °C 29.97 in /  1014.8 hPa Calm     90 % 0.01 in /  0.25 mm
21:34 52.3 °F /  11.3 °C 49.5 °F /  9.7 °C 29.97 in /  1014.8 hPa Calm     90 % 0.01 in /  0.25 mm
21:39 52.3 °F /  11.3 °C 49.5 °F /  9.7 °C 29.97 in /  1014.8 hPa Calm     90 % 0.00 in /  0 mm
21:44 52.3 °F /  11.3 °C 49.5 °F /  9.7 °C 29.97 in /  1014.8 hPa Calm     90 % 0.00 in /  0 mm
21:49 52.3 °F /  11.3 °C 49.5 °F /  9.7 °C 29.97 in /  1014.8 hPa Calm     90 % 0.00 in /  0 mm
21:54 52.2 °F /  11.2 °C 49.7 °F /  9.8 °C 29.97 in /  1014.8 hPa Calm     91 % 0.00 in /  0 mm
21:59 52.1 °F /  11.2 °C 49.6 °F /  9.8 °C 29.97 in /  1014.8 hPa Calm     91 % 0.00 in /  0 mm
22:13 52.1 °F /  11.2 °C 49.6 °F /  9.8 °C 29.97 in /  1014.8 hPa NW 1.2 mph /  1.9 km/h 1.2 mph /  1.9 km/h 91 % 0.01 in /  0.25 mm
22:18 51.9 °F /  11.1 °C 49.4 °F /  9.7 °C 29.97 in /  1014.8 hPa West 1.2 mph /  1.9 km/h   91 % 0.01 in /  0.25 mm
22:23 51.9 °F /  11.1 °C 49.4 °F /  9.7 °C 29.97 in /  1014.8 hPa Calm     91 % 0.01 in /  0.25 mm
22:28 51.8 °F /  11 °C 49.3 °F /  9.6 °C 29.97 in /  1014.8 hPa Calm     91 % 0.01 in /  0.25 mm
22:33 51.7 °F /  10.9 °C 49.5 °F /  9.7 °C 29.97 in /  1014.8 hPa Calm     92 % 0.03 in /  0.76 mm
22:38 51.7 °F /  10.9 °C 49.5 °F /  9.7 °C 29.96 in /  1014.4 hPa East 1.2 mph /  1.9 km/h   92 % 0.04 in /  1.02 mm
22:43 51.8 °F /  11 °C 49.3 °F /  9.6 °C 29.97 in /  1014.8 hPa Calm     91 % 0.05 in /  1.27 mm
22:48 51.8 °F /  11 °C 49.3 °F /  9.6 °C 29.97 in /  1014.8 hPa Calm     91 % 0.05 in /  1.27 mm
22:53 51.7 °F /  10.9 °C 49.2 °F /  9.6 °C 29.97 in /  1014.8 hPa Calm     91 % 0.05 in /  1.27 mm
22:58 51.8 °F /  11 °C 49.3 °F /  9.6 °C 29.97 in /  1014.8 hPa Calm     91 % 0.06 in /  1.52 mm
23:03 51.8 °F /  11 °C 49.3 °F /  9.6 °C 29.96 in /  1014.4 hPa Calm     91 % 0.06 in /  1.52 mm
23:08 51.7 °F /  10.9 °C 49.2 °F /  9.6 °C 29.96 in /  1014.4 hPa Calm     91 % 0.07 in /  1.78 mm
23:13 51.8 °F /  11 °C 49.0 °F /  9.4 °C 29.97 in /  1014.8 hPa East 1.2 mph /  1.9 km/h   90 % 0.06 in /  1.52 mm
23:18 51.8 °F /  11 °C 49.0 °F /  9.4 °C 29.97 in /  1014.8 hPa East 1.2 mph /  1.9 km/h 1.2 mph /  1.9 km/h 90 % 0.06 in /  1.52 mm
23:23 51.7 °F /  10.9 °C 48.9 °F /  9.4 °C 29.97 in /  1014.8 hPa East 1.2 mph /  1.9 km/h   90 % 0.06 in /  1.52 mm
23:28 51.6 °F /  10.9 °C 48.8 °F /  9.3 °C 29.97 in /  1014.8 hPa Calm   0.3 mph /  0.5 km/h 90 % 0.07 in /  1.78 mm
23:33 51.4 °F /  10.8 °C 48.9 °F /  9.4 °C 29.96 in /  1014.4 hPa East 2.0 mph /  3.2 km/h 2.0 mph /  3.2 km/h 91 % 0.05 in /  1.27 mm
23:38 51.3 °F /  10.7 °C 48.8 °F /  9.3 °C 29.96 in /  1014.4 hPa East 2.3 mph /  3.7 km/h   91 % 0.04 in /  1.02 mm
23:43 51.3 °F /  10.7 °C 48.8 °F /  9.3 °C 29.96 in /  1014.4 hPa East 1.2 mph /  1.9 km/h 1.2 mph /  1.9 km/h 91 % 0.04 in /  1.02 mm
23:49 51.3 °F /  10.7 °C 48.8 °F /  9.3 °C 29.96 in /  1014.4 hPa East 3.0 mph /  4.8 km/h 3.0 mph /  4.8 km/h 91 % 0.04 in /  1.02 mm
23:54 51.4 °F /  10.8 °C 48.6 °F /  9.2 °C 29.95 in /  1014.1 hPa SSW 3.5 mph /  5.6 km/h 3.5 mph /  5.6 km/h 90 % 0.04 in /  1.02 mm
23:59 51.4 °F /  10.8 °C 48.6 °F /  9.2 °C 29.96 in /  1014.4 hPa ESE 3.5 mph /  5.6 km/h 3.5 mph /  5.6 km/h 90 % 0.03 in /  0.76 mm
Park Place, Exeter, Tulare County, California, USA
Compliments of Weather Underground - 2.75 mb